sensor_id;sensor_type;location;lat;lon;timestamp;P1;durP1;ratioP1;P2;durP2;ratioP2
66185;SDS011;58178;49.552;27.922;2022-11-04T06:38:13;6.80;;;1.13;;
66185;SDS011;58178;49.552;27.922;2022-11-04T06:40:46;5.43;;;1.50;;
66185;SDS011;58178;49.552;27.922;2022-11-04T06:43:15;6.07;;;1.85;;
66185;SDS011;58178;49.552;27.922;2022-11-04T06:45:42;7.35;;;1.73;;
66185;SDS011;58178;49.552;27.922;2022-11-04T06:48:12;9.25;;;1.70;;
66185;SDS011;58178;49.552;27.922;2022-11-04T06:50:40;9.48;;;1.63;;
66185;SDS011;58178;49.552;27.922;2022-11-04T06:53:09;10.13;;;1.38;;
66185;SDS011;58178;49.552;27.922;2022-11-04T06:55:36;8.93;;;1.40;;
66185;SDS011;58178;49.552;27.922;2022-11-04T06:58:02;11.25;;;1.52;;
66185;SDS011;58178;49.552;27.922;2022-11-04T07:00:29;12.88;;;1.73;;
66185;SDS011;58178;49.552;27.922;2022-11-04T07:02:55;9.95;;;1.85;;
66185;SDS011;58178;49.552;27.922;2022-11-04T07:05:23;9.45;;;1.67;;
66185;SDS011;58178;49.552;27.922;2022-11-04T07:07:49;7.03;;;1.60;;
66185;SDS011;58178;49.552;27.922;2022-11-04T07:10:24;10.33;;;1.70;;
66185;SDS011;58178;49.552;27.922;2022-11-04T07:12:52;8.95;;;1.67;;
66185;SDS011;58178;49.552;27.922;2022-11-04T07:15:23;6.78;;;1.60;;
66185;SDS011;58178;49.552;27.922;2022-11-04T07:17:49;13.65;;;2.05;;
66185;SDS011;58178;49.552;27.922;2022-11-04T07:20:25;4.53;;;1.83;;
66185;SDS011;58178;49.552;27.922;2022-11-04T07:22:52;11.45;;;1.80;;
66185;SDS011;58178;49.552;27.922;2022-11-04T07:25:20;9.52;;;1.58;;
66185;SDS011;58178;49.552;27.922;2022-11-04T07:27:46;9.38;;;1.80;;
66185;SDS011;58178;49.552;27.922;2022-11-04T07:30:12;8.30;;;1.58;;
66185;SDS011;58178;49.552;27.922;2022-11-04T07:32:38;12.68;;;2.05;;
66185;SDS011;58178;49.552;27.922;2022-11-04T07:35:05;5.50;;;1.75;;
66185;SDS011;58178;49.552;27.922;2022-11-04T07:37:31;6.20;;;1.40;;
66185;SDS011;58178;49.552;27.922;2022-11-04T07:39:57;10.98;;;2.08;;
66185;SDS011;58178;49.552;27.922;2022-11-04T07:42:24;5.30;;;1.35;;
66185;SDS011;58178;49.552;27.922;2022-11-04T07:44:53;10.68;;;2.38;;
66185;SDS011;58178;49.552;27.922;2022-11-04T07:47:21;5.88;;;1.42;;
66185;SDS011;58178;49.552;27.922;2022-11-04T07:49:49;8.15;;;1.92;;
66185;SDS011;58178;49.552;27.922;2022-11-04T07:52:20;5.07;;;1.70;;
66185;SDS011;58178;49.552;27.922;2022-11-04T07:54:55;7.85;;;1.58;;
66185;SDS011;58178;49.552;27.922;2022-11-04T08:10:20;8.05;;;1.75;;
66185;SDS011;58178;49.552;27.922;2022-11-04T08:12:57;8.35;;;1.27;;
66185;SDS011;58178;49.552;27.922;2022-11-04T08:15:24;6.22;;;1.60;;
66185;SDS011;58178;49.552;27.922;2022-11-04T08:35:31;6.15;;;1.70;;
66185;SDS011;58178;49.552;27.922;2022-11-04T08:38:07;9.07;;;1.77;;
66185;SDS011;58178;49.552;27.922;2022-11-04T08:48:55;17.40;;;7.35;;
66185;SDS011;58178;49.552;27.922;2022-11-04T08:51:58;7.95;;;3.03;;
66185;SDS011;58178;49.552;27.922;2022-11-04T08:54:30;6.38;;;2.22;;
66185;SDS011;58178;49.552;27.922;2022-11-04T09:03:32;9.20;;;1.88;;
66185;SDS011;58178;49.552;27.922;2022-11-04T09:09:32;5.63;;;1.67;;
66185;SDS011;58178;49.552;27.922;2022-11-04T09:12:25;8.13;;;1.55;;
66185;SDS011;58178;49.552;27.922;2022-11-04T09:31:22;3.63;;;1.13;;
66185;SDS011;58178;49.552;27.922;2022-11-04T09:34:01;6.18;;;1.30;;
66185;SDS011;58178;49.552;27.922;2022-11-04T09:36:28;6.85;;;1.65;;
66185;SDS011;58178;49.552;27.922;2022-11-04T09:38:54;6.45;;;1.55;;
66185;SDS011;58178;49.552;27.922;2022-11-04T09:44:25;5.43;;;1.50;;
66185;SDS011;58178;49.552;27.922;2022-11-04T10:08:40;7.65;;;2.03;;
66185;SDS011;58178;49.552;27.922;2022-11-04T10:14:17;12.27;;;2.78;;
66185;SDS011;58178;49.552;27.922;2022-11-04T10:25:35;5.15;;;1.70;;
66185;SDS011;58178;49.552;27.922;2022-11-04T10:28:07;6.85;;;1.70;;
66185;SDS011;58178;49.552;27.922;2022-11-04T10:30:36;9.68;;;2.15;;
66185;SDS011;58178;49.552;27.922;2022-11-04T10:35:39;7.00;;;1.60;;
66185;SDS011;58178;49.552;27.922;2022-11-04T10:38:16;9.40;;;1.80;;
66185;SDS011;58178;49.552;27.922;2022-11-04T10:40:52;5.55;;;1.45;;
66185;SDS011;58178;49.552;27.922;2022-11-04T10:43:37;5.80;;;1.38;;
66185;SDS011;58178;49.552;27.922;2022-11-04T10:48:42;4.93;;;1.40;;
66185;SDS011;58178;49.552;27.922;2022-11-04T10:51:13;5.53;;;1.17;;
66185;SDS011;58178;49.552;27.922;2022-11-04T10:53:45;4.55;;;1.80;;
66185;SDS011;58178;49.552;27.922;2022-11-04T10:58:46;4.22;;;1.17;;
66185;SDS011;58178;49.552;27.922;2022-11-04T11:03:57;10.02;;;1.92;;
66185;SDS011;58178;49.552;27.922;2022-11-04T11:06:26;7.05;;;1.70;;
66185;SDS011;58178;49.552;27.922;2022-11-04T11:08:56;7.47;;;1.83;;
66185;SDS011;58178;49.552;27.922;2022-11-04T11:14:39;4.57;;;1.38;;
66185;SDS011;58178;49.552;27.922;2022-11-04T11:19:55;10.77;;;2.63;;
66185;SDS011;58178;49.552;27.922;2022-11-04T11:22:42;4.45;;;1.52;;
66185;SDS011;58178;49.552;27.922;2022-11-04T11:25:13;6.50;;;2.17;;
66185;SDS011;58178;49.552;27.922;2022-11-04T11:27:54;6.13;;;1.80;;
66185;SDS011;58178;49.552;27.922;2022-11-04T11:30:28;8.10;;;2.63;;
66185;SDS011;58178;49.552;27.922;2022-11-04T11:33:02;6.68;;;1.70;;
66185;SDS011;58178;49.552;27.922;2022-11-04T11:35:40;8.35;;;2.22;;
66185;SDS011;58178;49.552;27.922;2022-11-04T11:38:22;6.00;;;1.65;;
66185;SDS011;58178;49.552;27.922;2022-11-04T11:40:50;6.72;;;1.50;;
66185;SDS011;58178;49.552;27.922;2022-11-04T11:43:25;9.07;;;1.75;;
66185;SDS011;58178;49.552;27.922;2022-11-04T11:45:52;8.80;;;2.00;;
66185;SDS011;58178;49.552;27.922;2022-11-04T11:51:09;7.28;;;2.00;;
66185;SDS011;58178;49.552;27.922;2022-11-04T11:53:40;5.50;;;2.03;;
66185;SDS011;58178;49.552;27.922;2022-11-04T11:56:37;7.85;;;2.22;;
66185;SDS011;58178;49.552;27.922;2022-11-04T12:04:43;6.28;;;1.70;;
66185;SDS011;58178;49.552;27.922;2022-11-04T12:10:02;9.13;;;2.33;;
66185;SDS011;58178;49.552;27.922;2022-11-04T12:21:23;7.63;;;2.05;;
66185;SDS011;58178;49.552;27.922;2022-11-04T12:24:09;10.75;;;1.70;;
66185;SDS011;58178;49.552;27.922;2022-11-04T12:32:47;9.70;;;2.13;;
66185;SDS011;58178;49.552;27.922;2022-11-04T12:40:52;6.10;;;1.42;;
66185;SDS011;58178;49.552;27.922;2022-11-04T12:43:24;5.75;;;1.35;;
66185;SDS011;58178;49.552;27.922;2022-11-04T12:54:02;8.35;;;1.73;;
66185;SDS011;58178;49.552;27.922;2022-11-04T12:56:38;4.60;;;1.30;;
66185;SDS011;58178;49.552;27.922;2022-11-04T13:01:58;4.20;;;1.20;;
66185;SDS011;58178;49.552;27.922;2022-11-04T13:04:29;6.45;;;1.25;;
66185;SDS011;58178;49.552;27.922;2022-11-04T13:07:09;5.70;;;1.80;;
66185;SDS011;58178;49.552;27.922;2022-11-04T13:09:45;4.00;;;2.30;;
66185;SDS011;58178;49.552;27.922;2022-11-04T13:17:37;8.40;;;3.95;;
66185;SDS011;58178;49.552;27.922;2022-11-04T13:20:05;12.38;;;3.63;;
66185;SDS011;58178;49.552;27.922;2022-11-04T13:22:42;8.75;;;4.63;;
66185;SDS011;58178;49.552;27.922;2022-11-04T13:25:18;9.23;;;4.28;;
66185;SDS011;58178;49.552;27.922;2022-11-04T13:27:47;9.40;;;3.80;;
66185;SDS011;58178;49.552;27.922;2022-11-04T13:35:48;6.75;;;3.03;;
66185;SDS011;58178;49.552;27.922;2022-11-04T13:38:35;6.95;;;2.50;;
66185;SDS011;58178;49.552;27.922;2022-11-04T13:43:45;6.38;;;3.30;;
66185;SDS011;58178;49.552;27.922;2022-11-04T13:46:22;6.75;;;3.67;;
66185;SDS011;58178;49.552;27.922;2022-11-04T13:52:11;10.00;;;5.00;;
66185;SDS011;58178;49.552;27.922;2022-11-04T13:55:03;10.50;;;5.20;;
66185;SDS011;58178;49.552;27.922;2022-11-04T13:57:31;9.93;;;4.75;;
66185;SDS011;58178;49.552;27.922;2022-11-04T14:02:56;11.65;;;5.20;;
66185;SDS011;58178;49.552;27.922;2022-11-04T14:08:11;11.93;;;5.22;;
66185;SDS011;58178;49.552;27.922;2022-11-04T14:18:48;14.13;;;5.15;;
66185;SDS011;58178;49.552;27.922;2022-11-04T14:21:16;10.70;;;5.47;;
66185;SDS011;58178;49.552;27.922;2022-11-04T14:23:56;12.27;;;5.30;;
66185;SDS011;58178;49.552;27.922;2022-11-04T14:26:28;11.48;;;5.50;;
66185;SDS011;58178;49.552;27.922;2022-11-04T14:29:08;13.60;;;6.22;;
66185;SDS011;58178;49.552;27.922;2022-11-04T14:31:45;11.95;;;5.97;;
66185;SDS011;58178;49.552;27.922;2022-11-04T14:36:56;15.05;;;6.55;;
66185;SDS011;58178;49.552;27.922;2022-11-04T14:39:40;8.98;;;6.30;;
66185;SDS011;58178;49.552;27.922;2022-11-04T14:42:07;12.60;;;6.25;;
66185;SDS011;58178;49.552;27.922;2022-11-04T14:44:46;12.70;;;7.53;;
66185;SDS011;58178;49.552;27.922;2022-11-04T14:47:28;17.67;;;8.75;;
66185;SDS011;58178;49.552;27.922;2022-11-04T14:52:24;24.23;;;10.40;;
66185;SDS011;58178;49.552;27.922;2022-11-04T14:54:55;21.38;;;11.02;;
66185;SDS011;58178;49.552;27.922;2022-11-04T14:57:37;21.23;;;8.75;;
66185;SDS011;58178;49.552;27.922;2022-11-04T15:05:40;16.33;;;9.40;;
66185;SDS011;58178;49.552;27.922;2022-11-04T15:08:31;21.08;;;9.10;;
66185;SDS011;58178;49.552;27.922;2022-11-04T15:11:00;14.68;;;8.02;;
66185;SDS011;58178;49.552;27.922;2022-11-04T15:13:26;16.33;;;8.07;;
66185;SDS011;58178;49.552;27.922;2022-11-04T15:15:55;17.38;;;8.75;;
66185;SDS011;58178;49.552;27.922;2022-11-04T15:18:25;16.85;;;8.63;;
66185;SDS011;58178;49.552;27.922;2022-11-04T15:20:57;21.85;;;10.60;;
66185;SDS011;58178;49.552;27.922;2022-11-04T15:23:26;16.60;;;9.60;;
66185;SDS011;58178;49.552;27.922;2022-11-04T15:25:56;14.63;;;9.15;;
66185;SDS011;58178;49.552;27.922;2022-11-04T15:28:24;17.45;;;9.10;;
66185;SDS011;58178;49.552;27.922;2022-11-04T15:31:29;15.55;;;9.00;;
66185;SDS011;58178;49.552;27.922;2022-11-04T15:33:57;13.90;;;8.70;;
66185;SDS011;58178;49.552;27.922;2022-11-04T15:36:28;15.38;;;8.80;;
66185;SDS011;58178;49.552;27.922;2022-11-04T15:39:07;15.15;;;10.35;;
66185;SDS011;58178;49.552;27.922;2022-11-04T15:41:39;17.13;;;9.88;;
66185;SDS011;58178;49.552;27.922;2022-11-04T15:44:26;14.95;;;9.13;;
66185;SDS011;58178;49.552;27.922;2022-11-04T15:46:57;16.88;;;9.77;;
66185;SDS011;58178;49.552;27.922;2022-11-04T15:49:31;15.75;;;9.90;;
66185;SDS011;58178;49.552;27.922;2022-11-04T15:54:28;23.50;;;11.35;;
66185;SDS011;58178;49.552;27.922;2022-11-04T15:57:02;20.67;;;11.13;;
66185;SDS011;58178;49.552;27.922;2022-11-04T16:32:42;15.70;;;9.85;;
66185;SDS011;58178;49.552;27.922;2022-11-04T16:35:24;12.45;;;7.82;;
66185;SDS011;58178;49.552;27.922;2022-11-04T16:57:19;12.43;;;7.03;;
66185;SDS011;58178;49.552;27.922;2022-11-04T16:59:51;8.82;;;6.88;;
66185;SDS011;58178;49.552;27.922;2022-11-04T17:04:47;7.40;;;5.05;;
66185;SDS011;58178;49.552;27.922;2022-11-04T17:07:13;10.40;;;5.13;;
66185;SDS011;58178;49.552;27.922;2022-11-04T17:09:39;9.40;;;5.13;;
66185;SDS011;58178;49.552;27.922;2022-11-04T17:12:05;8.27;;;6.35;;
66185;SDS011;58178;49.552;27.922;2022-11-04T17:14:32;16.25;;;8.98;;
66185;SDS011;58178;49.552;27.922;2022-11-04T17:16:59;14.27;;;9.27;;
66185;SDS011;58178;49.552;27.922;2022-11-04T17:19:57;14.50;;;8.55;;
66185;SDS011;58178;49.552;27.922;2022-11-04T17:22:39;14.25;;;8.18;;
66185;SDS011;58178;49.552;27.922;2022-11-04T17:25:36;9.10;;;5.88;;
66185;SDS011;58178;49.552;27.922;2022-11-04T17:28:02;11.77;;;5.80;;
66185;SDS011;58178;49.552;27.922;2022-11-04T17:30:29;11.98;;;6.05;;
66185;SDS011;58178;49.552;27.922;2022-11-04T17:33:03;8.68;;;5.47;;
66185;SDS011;58178;49.552;27.922;2022-11-04T17:35:49;10.30;;;5.70;;
66185;SDS011;58178;49.552;27.922;2022-11-04T17:38:16;9.75;;;5.40;;
66185;SDS011;58178;49.552;27.922;2022-11-04T17:40:46;7.35;;;5.18;;
66185;SDS011;58178;49.552;27.922;2022-11-04T17:43:34;7.55;;;4.90;;
66185;SDS011;58178;49.552;27.922;2022-11-04T17:46:22;7.97;;;6.28;;
66185;SDS011;58178;49.552;27.922;2022-11-04T17:49:15;9.80;;;7.63;;
66185;SDS011;58178;49.552;27.922;2022-11-04T17:51:43;10.63;;;7.25;;
66185;SDS011;58178;49.552;27.922;2022-11-04T17:54:11;11.75;;;6.80;;
66185;SDS011;58178;49.552;27.922;2022-11-04T17:56:38;11.05;;;5.75;;
66185;SDS011;58178;49.552;27.922;2022-11-04T17:59:05;7.60;;;5.93;;
66185;SDS011;58178;49.552;27.922;2022-11-04T18:01:37;9.00;;;5.72;;
66185;SDS011;58178;49.552;27.922;2022-11-04T18:04:12;7.47;;;4.70;;
66185;SDS011;58178;49.552;27.922;2022-11-04T18:06:49;6.85;;;3.95;;
66185;SDS011;58178;49.552;27.922;2022-11-04T18:09:24;3.85;;;2.67;;
66185;SDS011;58178;49.552;27.922;2022-11-04T18:11:50;7.07;;;3.10;;
66185;SDS011;58178;49.552;27.922;2022-11-04T18:14:35;6.97;;;3.45;;
66185;SDS011;58178;49.552;27.922;2022-11-04T18:19:53;6.45;;;3.33;;
66185;SDS011;58178;49.552;27.922;2022-11-04T18:22:24;8.10;;;4.80;;
66185;SDS011;58178;49.552;27.922;2022-11-04T18:24:54;10.20;;;6.75;;
66185;SDS011;58178;49.552;27.922;2022-11-04T18:27:20;15.40;;;9.52;;
66185;SDS011;58178;49.552;27.922;2022-11-04T18:29:46;14.68;;;9.10;;
66185;SDS011;58178;49.552;27.922;2022-11-04T18:32:12;8.00;;;6.03;;
66185;SDS011;58178;49.552;27.922;2022-11-04T18:34:38;9.65;;;5.20;;
66185;SDS011;58178;49.552;27.922;2022-11-04T18:37:03;8.55;;;5.20;;
66185;SDS011;58178;49.552;27.922;2022-11-04T18:39:35;8.25;;;5.93;;
66185;SDS011;58178;49.552;27.922;2022-11-04T18:42:05;10.85;;;7.10;;
66185;SDS011;58178;49.552;27.922;2022-11-04T18:50:33;12.82;;;8.13;;
66185;SDS011;58178;49.552;27.922;2022-11-04T19:12:36;15.80;;;10.57;;
66185;SDS011;58178;49.552;27.922;2022-11-04T19:15:22;20.85;;;12.93;;
66185;SDS011;58178;49.552;27.922;2022-11-04T19:18:21;14.85;;;8.82;;
66185;SDS011;58178;49.552;27.922;2022-11-04T19:27:21;12.00;;;7.15;;
66185;SDS011;58178;49.552;27.922;2022-11-04T19:29:52;11.00;;;6.03;;
66185;SDS011;58178;49.552;27.922;2022-11-04T19:32:25;7.50;;;5.35;;
66185;SDS011;58178;49.552;27.922;2022-11-04T19:34:55;11.32;;;5.88;;
66185;SDS011;58178;49.552;27.922;2022-11-04T19:37:25;9.77;;;5.35;;
66185;SDS011;58178;49.552;27.922;2022-11-04T19:40:47;7.88;;;5.50;;
66185;SDS011;58178;49.552;27.922;2022-11-04T19:43:35;9.10;;;5.43;;
66185;SDS011;58178;49.552;27.922;2022-11-04T19:46:04;8.77;;;5.13;;
66185;SDS011;58178;49.552;27.922;2022-11-04T19:51:42;7.35;;;5.60;;
66185;SDS011;58178;49.552;27.922;2022-11-04T19:54:12;8.27;;;4.95;;
66185;SDS011;58178;49.552;27.922;2022-11-04T19:56:38;11.55;;;4.50;;
66185;SDS011;58178;49.552;27.922;2022-11-04T19:59:04;12.90;;;4.97;;
66185;SDS011;58178;49.552;27.922;2022-11-04T20:01:39;8.20;;;4.70;;
66185;SDS011;58178;49.552;27.922;2022-11-04T20:04:42;9.27;;;4.78;;
66185;SDS011;58178;49.552;27.922;2022-11-04T20:07:16;11.60;;;7.05;;
66185;SDS011;58178;49.552;27.922;2022-11-04T20:09:53;10.95;;;6.88;;
66185;SDS011;58178;49.552;27.922;2022-11-04T20:12:32;10.63;;;5.60;;
66185;SDS011;58178;49.552;27.922;2022-11-04T20:15:18;8.77;;;5.30;;
66185;SDS011;58178;49.552;27.922;2022-11-04T20:18:03;13.88;;;5.68;;
66185;SDS011;58178;49.552;27.922;2022-11-04T20:20:35;10.50;;;6.35;;
66185;SDS011;58178;49.552;27.922;2022-11-04T20:23:05;8.63;;;5.60;;
66185;SDS011;58178;49.552;27.922;2022-11-04T20:25:31;7.25;;;5.60;;
66185;SDS011;58178;49.552;27.922;2022-11-04T20:27:57;7.40;;;5.20;;
66185;SDS011;58178;49.552;27.922;2022-11-04T20:30:23;8.38;;;5.47;;
66185;SDS011;58178;49.552;27.922;2022-11-04T20:32:49;13.55;;;6.80;;
66185;SDS011;58178;49.552;27.922;2022-11-04T20:35:14;9.75;;;5.78;;
66185;SDS011;58178;49.552;27.922;2022-11-04T20:37:40;9.57;;;5.65;;
66185;SDS011;58178;49.552;27.922;2022-11-04T20:40:06;9.32;;;5.38;;
66185;SDS011;58178;49.552;27.922;2022-11-04T20:42:32;7.60;;;4.75;;
66185;SDS011;58178;49.552;27.922;2022-11-04T20:44:58;11.63;;;6.32;;
66185;SDS011;58178;49.552;27.922;2022-11-04T20:47:24;11.90;;;5.68;;
66185;SDS011;58178;49.552;27.922;2022-11-04T20:49:51;10.00;;;5.97;;
66185;SDS011;58178;49.552;27.922;2022-11-04T20:52:17;10.02;;;6.07;;
66185;SDS011;58178;49.552;27.922;2022-11-04T20:54:42;10.73;;;6.10;;
66185;SDS011;58178;49.552;27.922;2022-11-04T20:57:08;12.70;;;6.15;;
66185;SDS011;58178;49.552;27.922;2022-11-04T20:59:34;11.32;;;5.43;;
66185;SDS011;58178;49.552;27.922;2022-11-04T21:02:00;8.73;;;6.05;;
66185;SDS011;58178;49.552;27.922;2022-11-04T21:04:25;12.35;;;6.35;;
66185;SDS011;58178;49.552;27.922;2022-11-04T21:06:51;11.45;;;6.30;;
66185;SDS011;58178;49.552;27.922;2022-11-04T21:09:18;8.02;;;5.90;;
66185;SDS011;58178;49.552;27.922;2022-11-04T21:11:44;10.85;;;6.40;;
66185;SDS011;58178;49.552;27.922;2022-11-04T21:14:11;11.13;;;6.68;;
66185;SDS011;58178;49.552;27.922;2022-11-04T21:16:40;9.25;;;6.72;;
66185;SDS011;58178;49.552;27.922;2022-11-04T21:19:06;10.55;;;6.43;;
66185;SDS011;58178;49.552;27.922;2022-11-04T21:21:33;11.13;;;5.95;;
66185;SDS011;58178;49.552;27.922;2022-11-04T21:23:59;8.85;;;5.80;;
66185;SDS011;58178;49.552;27.922;2022-11-04T21:26:29;9.73;;;5.78;;
66185;SDS011;58178;49.552;27.922;2022-11-04T21:28:57;10.50;;;6.07;;
66185;SDS011;58178;49.552;27.922;2022-11-04T21:31:28;11.20;;;5.40;;
66185;SDS011;58178;49.552;27.922;2022-11-04T21:33:55;8.00;;;5.15;;
66185;SDS011;58178;49.552;27.922;2022-11-04T21:36:21;12.65;;;5.45;;
66185;SDS011;58178;49.552;27.922;2022-11-04T21:38:48;10.43;;;5.68;;
66185;SDS011;58178;49.552;27.922;2022-11-04T21:41:15;10.10;;;5.38;;
66185;SDS011;58178;49.552;27.922;2022-11-04T21:43:52;9.90;;;5.55;;
66185;SDS011;58178;49.552;27.922;2022-11-04T21:46:18;10.05;;;5.90;;
66185;SDS011;58178;49.552;27.922;2022-11-04T21:48:44;9.63;;;5.97;;
66185;SDS011;58178;49.552;27.922;2022-11-04T21:51:14;10.00;;;7.82;;
66185;SDS011;58178;49.552;27.922;2022-11-04T21:53:42;8.73;;;6.15;;
66185;SDS011;58178;49.552;27.922;2022-11-04T21:56:12;9.23;;;5.85;;
66185;SDS011;58178;49.552;27.922;2022-11-04T21:58:39;10.68;;;5.50;;
66185;SDS011;58178;49.552;27.922;2022-11-04T22:01:09;7.80;;;5.28;;
66185;SDS011;58178;49.552;27.922;2022-11-04T22:03:36;9.18;;;5.97;;
66185;SDS011;58178;49.552;27.922;2022-11-04T22:06:05;10.23;;;5.57;;
66185;SDS011;58178;49.552;27.922;2022-11-04T22:08:35;10.82;;;5.75;;
66185;SDS011;58178;49.552;27.922;2022-11-04T22:13:41;13.73;;;6.88;;
66185;SDS011;58178;49.552;27.922;2022-11-04T22:16:14;10.63;;;5.93;;
66185;SDS011;58178;49.552;27.922;2022-11-04T22:18:42;10.27;;;6.40;;
66185;SDS011;58178;49.552;27.922;2022-11-04T22:21:10;10.52;;;5.78;;
66185;SDS011;58178;49.552;27.922;2022-11-04T22:23:37;14.88;;;7.18;;
66185;SDS011;58178;49.552;27.922;2022-11-04T22:26:04;17.08;;;9.65;;
66185;SDS011;58178;49.552;27.922;2022-11-04T22:28:31;11.90;;;6.10;;
66185;SDS011;58178;49.552;27.922;2022-11-04T22:31:07;15.05;;;6.72;;
66185;SDS011;58178;49.552;27.922;2022-11-04T22:33:34;9.30;;;5.00;;
66185;SDS011;58178;49.552;27.922;2022-11-04T22:36:01;10.80;;;4.85;;
66185;SDS011;58178;49.552;27.922;2022-11-04T22:38:29;9.85;;;5.22;;
66185;SDS011;58178;49.552;27.922;2022-11-04T22:40:56;8.80;;;5.13;;
66185;SDS011;58178;49.552;27.922;2022-11-04T22:43:23;9.52;;;5.65;;
66185;SDS011;58178;49.552;27.922;2022-11-04T22:45:50;10.98;;;4.97;;
66185;SDS011;58178;49.552;27.922;2022-11-04T22:48:17;8.65;;;5.47;;
66185;SDS011;58178;49.552;27.922;2022-11-04T22:50:43;10.20;;;4.75;;
66185;SDS011;58178;49.552;27.922;2022-11-04T22:53:10;9.55;;;5.43;;
66185;SDS011;58178;49.552;27.922;2022-11-04T22:55:36;11.00;;;5.40;;
66185;SDS011;58178;49.552;27.922;2022-11-04T22:58:02;11.93;;;5.78;;
66185;SDS011;58178;49.552;27.922;2022-11-04T23:00:28;11.40;;;5.88;;
66185;SDS011;58178;49.552;27.922;2022-11-04T23:02:54;11.93;;;6.07;;
66185;SDS011;58178;49.552;27.922;2022-11-04T23:05:20;10.45;;;5.45;;
66185;SDS011;58178;49.552;27.922;2022-11-04T23:07:45;11.73;;;5.68;;
66185;SDS011;58178;49.552;27.922;2022-11-04T23:10:11;8.38;;;5.72;;
66185;SDS011;58178;49.552;27.922;2022-11-04T23:12:55;11.27;;;6.15;;
66185;SDS011;58178;49.552;27.922;2022-11-04T23:15:40;15.70;;;5.63;;
66185;SDS011;58178;49.552;27.922;2022-11-04T23:18:24;12.00;;;6.03;;
66185;SDS011;58178;49.552;27.922;2022-11-04T23:21:06;11.30;;;5.93;;
66185;SDS011;58178;49.552;27.922;2022-11-04T23:23:54;11.30;;;6.18;;
66185;SDS011;58178;49.552;27.922;2022-11-04T23:26:38;12.48;;;5.70;;
66185;SDS011;58178;49.552;27.922;2022-11-04T23:29:05;11.50;;;5.88;;
66185;SDS011;58178;49.552;27.922;2022-11-04T23:31:49;9.25;;;5.90;;
66185;SDS011;58178;49.552;27.922;2022-11-04T23:34:15;14.43;;;6.18;;
66185;SDS011;58178;49.552;27.922;2022-11-04T23:36:59;14.05;;;6.10;;
66185;SDS011;58178;49.552;27.922;2022-11-04T23:39:41;12.15;;;6.53;;
66185;SDS011;58178;49.552;27.922;2022-11-04T23:42:08;14.32;;;7.50;;
66185;SDS011;58178;49.552;27.922;2022-11-04T23:44:45;14.40;;;7.35;;
66185;SDS011;58178;49.552;27.922;2022-11-04T23:47:31;7.80;;;5.38;;
66185;SDS011;58178;49.552;27.922;2022-11-04T23:50:21;9.95;;;5.97;;
66185;SDS011;58178;49.552;27.922;2022-11-04T23:53:05;11.35;;;6.40;;
66185;SDS011;58178;49.552;27.922;2022-11-04T23:55:50;15.93;;;7.25;;
66185;SDS011;58178;49.552;27.922;2022-11-04T23:58:35;19.60;;;8.60;;
